NSFA

Faleolo International Airport

Apia, Samoa
TAF NSFA 181137Z 1812/1912 06007KT 9999 SCT020 PROB30 TEMPO 1818/1912 5000 TSRA BKN015 FEW018CB
Issued Valid From Valid To
Jan-18 @ 11:37 UTC
(53 minutes ago)
Jan-18 @ 12:00 UTC
(30 minutes ago)
Jan-19 @ 12:00 UTC
(in 24 hours)
Jan-18 @ 12:00 to Jan-19 @ 12:00
TAF NSFA 181137Z 1812/1912 06007KT 9999 SCT020
Wind Visibility Clouds
60° at 7 knots 10,000+ meters
  • Scattered at 2,000' AGL
Temporary  (Probability 30%) Jan-18 @ 18:00 to Jan-19 @ 12:00
PROB30 TEMPO 1818/1912 5000 TSRA BKN015 FEW018CB
Visibility Clouds Conditions
5,005 meters
  • Broken at 1,500' AGL
  • Few at 1,800' AGL
  • Thunderstorm
  • Rain
TAF NSFA 181137Z 1812/1912 06007KT 9999 SCT020 PROB30 TEMPO 1818/1912 5000 TSRA BKN015 FEW018CB
Issued Jan-18 @ 11:37 UTC
(53 minutes ago)
Valid From Jan-18 @ 12:00 UTC
(30 minutes ago)
Valid To Jan-19 @ 12:00 UTC
(in 24 hours)
Jan-18 @ 12:00 - Jan-19 @ 12:00
Wind Visibility
60° at 7 knots 10,000+ meters
Clouds
  • Scattered at 2,000' AGL
Probability 30% Temporary Jan-18 @ 18:00 - Jan-19 @ 12:00
Clouds
  • Broken at 1,500' AGL
  • Few at 1,800' AGL
Conditions
  • Thunderstorm
  • Rain